Time;durP1;ratioP1;P1;durP2;ratioP2;P2;SDS_P1;SDS_P2;PMS_P1;PMS_P2;Temp;Humidity;BMP_temperature;BMP_pressure;BME280_temperature;BME280_humidity;BME280_pressure;Samples;Min_cycle;Max_cycle;Signal;HPM_P1;HPM_P2
2023/01/08 00:01:42;;;;;;;10.68;5.53;;;;;;;;;;5115280;28;20034;-72
2023/01/08 00:04:09;;;;;;;13.48;5.85;;;;;;;;;;5115134;28;20027;-72
2023/01/08 00:06:35;;;;;;;9.07;3.92;;;;;;;;;;5115113;28;20406;-72
2023/01/08 00:09:01;;;;;;;12.73;5.00;;;;;;;;;;5115218;28;20027;-72
2023/01/08 00:11:28;;;;;;;12.27;4.60;;;;;;;;;;5114499;28;20016;-72
2023/01/08 00:13:54;;;;;;;9.73;4.22;;;;;;;;;;5115036;28;20024;-72
2023/01/08 00:16:20;;;;;;;9.13;4.30;;;;;;;;;;5114804;28;20369;-72
2023/01/08 00:18:47;;;;;;;14.15;5.07;;;;;;;;;;5114694;28;20023;-72
2023/01/08 00:21:13;;;;;;;12.52;5.30;;;;;;;;;;5114874;28;20027;-72
2023/01/08 00:23:40;;;;;;;7.85;4.68;;;;;;;;;;5114858;28;20038;-72
2023/01/08 00:26:07;;;;;;;12.98;4.32;;;;;;;;;;5114239;28;20042;-72
2023/01/08 00:28:34;;;;;;;10.63;4.70;;;;;;;;;;5114880;28;20038;-72
2023/01/08 00:31:02;;;;;;;11.95;4.78;;;;;;;;;;5114515;28;20024;-72
2023/01/08 00:33:28;;;;;;;46.03;6.18;;;;;;;;;;5114715;28;20035;-72
2023/01/08 00:35:55;;;;;;;20.25;4.47;;;;;;;;;;5113747;28;20045;-72
2023/01/08 00:38:24;;;;;;;10.77;4.35;;;;;;;;;;5114327;28;20020;-72
2023/01/08 00:40:51;;;;;;;8.13;4.03;;;;;;;;;;5113998;28;20054;-72
2023/01/08 00:43:17;;;;;;;11.25;4.78;;;;;;;;;;5114228;28;20023;-72
2023/01/08 00:45:43;;;;;;;9.98;4.75;;;;;;;;;;5114569;28;20040;-72
2023/01/08 00:48:10;;;;;;;8.60;3.85;;;;;;;;;;5114389;28;20031;-72
2023/01/08 00:50:36;;;;;;;7.97;4.20;;;;;;;;;;5114210;28;20019;-72
2023/01/08 00:53:03;;;;;;;8.85;4.28;;;;;;;;;;5095913;28;20034;-72
2023/01/08 00:55:29;;;;;;;8.82;4.15;;;;;;;;;;5113761;28;20377;-72
2023/01/08 00:57:57;;;;;;;14.00;5.53;;;;;;;;;;5095897;28;20124;-72
2023/01/08 01:00:24;;;;;;;12.73;5.10;;;;;;;;;;5113854;28;20046;-72
2023/01/08 01:02:50;;;;;;;9.48;4.70;;;;;;;;;;5113877;28;20502;-72
2023/01/08 01:05:16;;;;;;;9.48;4.10;;;;;;;;;;5096174;28;20041;-72
2023/01/08 01:07:43;;;;;;;10.40;4.47;;;;;;;;;;5113649;28;20038;-72
2023/01/08 01:10:10;;;;;;;12.02;4.82;;;;;;;;;;5113741;28;20080;-72
2023/01/08 01:12:40;;;;;;;12.60;4.45;;;;;;;;;;5113707;28;20027;-72
2023/01/08 01:15:07;;;;;;;9.73;4.30;;;;;;;;;;5113720;28;20020;-72
2023/01/08 01:17:34;;;;;;;10.93;4.88;;;;;;;;;;5095450;28;20028;-72
2023/01/08 01:20:00;;;;;;;9.50;4.53;;;;;;;;;;5113751;28;20015;-72
2023/01/08 01:22:27;;;;;;;6.32;3.88;;;;;;;;;;5113994;28;20023;-71
2023/01/08 01:24:53;;;;;;;10.85;5.10;;;;;;;;;;5113049;28;20030;-72
2023/01/08 01:27:19;;;;;;;8.50;4.57;;;;;;;;;;5113325;28;20049;-71
2023/01/08 01:29:45;;;;;;;8.40;4.38;;;;;;;;;;5113520;28;20023;-72
2023/01/08 01:32:12;;;;;;;11.95;4.35;;;;;;;;;;5113312;28;20134;-71
2023/01/08 01:34:38;;;;;;;14.30;4.80;;;;;;;;;;5113602;28;20015;-72
2023/01/08 01:37:06;;;;;;;13.02;5.25;;;;;;;;;;5113407;28;20544;-72
2023/01/08 01:39:32;;;;;;;12.95;5.30;;;;;;;;;;5112804;28;20397;-72
2023/01/08 01:41:58;;;;;;;10.52;5.13;;;;;;;;;;5113282;28;20032;-72
2023/01/08 01:44:37;;;;;;;13.80;5.40;;;;;;;;;;5113108;28;20028;-72
2023/01/08 01:47:20;;;;;;;9.80;5.35;;;;;;;;;;5112851;28;20047;-72
2023/01/08 01:49:52;;;;;;;9.48;5.40;;;;;;;;;;5113004;28;20023;-72
2023/01/08 01:52:21;;;;;;;12.43;5.35;;;;;;;;;;5113010;28;20509;-72
2023/01/08 01:54:48;;;;;;;10.77;5.05;;;;;;;;;;5112872;28;20027;-72
2023/01/08 01:57:15;;;;;;;8.10;4.68;;;;;;;;;;5113065;28;20038;-72
2023/01/08 01:59:41;;;;;;;14.48;5.53;;;;;;;;;;5112801;28;20024;-72
2023/01/08 02:02:08;;;;;;;11.40;5.70;;;;;;;;;;5112679;28;20023;-72
2023/01/08 02:04:34;;;;;;;13.73;6.10;;;;;;;;;;5113063;28;20023;-72
2023/01/08 02:07:23;;;;;;;13.00;5.13;;;;;;;;;;5112701;28;20381;-72
2023/01/08 02:09:49;;;;;;;14.10;5.63;;;;;;;;;;5104804;28;20036;-71
2023/01/08 02:12:28;;;;;;;12.23;6.05;;;;;;;;;;5112924;28;20020;-72
2023/01/08 02:14:54;;;;;;;10.93;6.28;;;;;;;;;;5112922;28;20019;-72
2023/01/08 02:17:26;;;;;;;15.75;6.28;;;;;;;;;;5112763;28;20030;-72
2023/01/08 02:19:56;;;;;;;12.25;6.25;;;;;;;;;;5112763;28;20023;-71
2023/01/08 02:22:25;;;;;;;12.00;6.13;;;;;;;;;;5112674;28;20031;-72
2023/01/08 02:25:10;;;;;;;15.15;5.53;;;;;;;;;;5112872;28;20019;-72
2023/01/08 02:27:38;;;;;;;12.32;6.05;;;;;;;;;;5094181;28;20062;-71
2023/01/08 02:30:05;;;;;;;12.90;6.15;;;;;;;;;;5094707;28;20028;-72
2023/01/08 02:32:36;;;;;;;15.10;6.15;;;;;;;;;;5112669;28;20499;-72
2023/01/08 02:35:03;;;;;;;12.48;6.88;;;;;;;;;;5094377;28;20023;-70
2023/01/08 02:37:30;;;;;;;11.38;5.72;;;;;;;;;;5112100;28;20084;-71
2023/01/08 02:39:59;;;;;;;12.70;6.30;;;;;;;;;;5112407;28;20031;-71
2023/01/08 02:42:44;;;;;;;12.70;6.70;;;;;;;;;;5112533;28;20044;-71
2023/01/08 02:45:20;;;;;;;14.45;6.32;;;;;;;;;;5112322;28;20020;-72
2023/01/08 02:47:51;;;;;;;12.52;6.05;;;;;;;;;;5112215;28;20039;-71
2023/01/08 02:50:32;;;;;;;9.55;5.45;;;;;;;;;;5112306;28;20033;-72
2023/01/08 02:53:02;;;;;;;8.48;5.20;;;;;;;;;;5112233;28;20020;-72
2023/01/08 02:55:29;;;;;;;11.27;5.32;;;;;;;;;;5094170;28;20038;-72
2023/01/08 02:57:56;;;;;;;11.48;5.20;;;;;;;;;;5112190;28;20020;-70
2023/01/08 03:00:23;;;;;;;16.67;6.57;;;;;;;;;;5114927;28;20058;-71
2023/01/08 03:02:51;;;;;;;14.45;6.47;;;;;;;;;;5116396;28;20028;-71
2023/01/08 03:05:23;;;;;;;12.45;6.32;;;;;;;;;;5116188;28;20020;-71
2023/01/08 03:07:49;;;;;;;11.52;6.70;;;;;;;;;;5116199;28;20076;-71
2023/01/08 03:10:17;;;;;;;14.25;5.35;;;;;;;;;;5116315;28;20034;-72
2023/01/08 03:12:52;;;;;;;9.43;5.38;;;;;;;;;;5116366;28;20023;-72
2023/01/08 03:15:23;;;;;;;11.02;5.28;;;;;;;;;;5116184;28;20019;-71
2023/01/08 03:17:51;;;;;;;12.23;5.05;;;;;;;;;;5098096;28;20498;-70
2023/01/08 03:20:20;;;;;;;13.90;5.25;;;;;;;;;;5115545;28;20027;-71
2023/01/08 03:22:47;;;;;;;14.18;6.03;;;;;;;;;;5115835;28;20026;-71
2023/01/08 03:25:14;;;;;;;14.30;5.85;;;;;;;;;;5116198;28;20050;-71
2023/01/08 03:27:46;;;;;;;11.82;6.00;;;;;;;;;;5115707;28;20096;-71
2023/01/08 03:30:13;;;;;;;14.50;5.90;;;;;;;;;;5115875;28;20024;-72
2023/01/08 03:32:41;;;;;;;11.80;5.90;;;;;;;;;;5115865;28;20031;-71
2023/01/08 03:35:09;;;;;;;10.77;5.95;;;;;;;;;;5115530;28;20023;-71
2023/01/08 03:37:38;;;;;;;11.45;5.95;;;;;;;;;;5116029;28;20019;-72
2023/01/08 03:40:10;;;;;;;13.65;6.13;;;;;;;;;;5115595;28;20054;-72
2023/01/08 03:42:36;;;;;;;15.25;5.93;;;;;;;;;;5115878;28;20023;-71
2023/01/08 03:45:03;;;;;;;12.50;5.78;;;;;;;;;;5115737;28;20035;-71
2023/01/08 03:47:30;;;;;;;11.60;5.95;;;;;;;;;;5115377;28;20039;-71
2023/01/08 03:50:00;;;;;;;12.23;5.55;;;;;;;;;;5115303;28;20023;-72
2023/01/08 03:52:27;;;;;;;15.00;5.65;;;;;;;;;;5115383;28;20024;-72
2023/01/08 03:54:54;;;;;;;12.73;5.80;;;;;;;;;;5115499;28;20034;-72
2023/01/08 03:57:20;;;;;;;15.85;5.97;;;;;;;;;;5115232;28;20019;-72
2023/01/08 03:59:46;;;;;;;12.77;6.32;;;;;;;;;;5115110;28;20027;-72
2023/01/08 04:02:13;;;;;;;10.82;5.18;;;;;;;;;;5115059;28;20034;-72
2023/01/08 04:04:39;;;;;;;10.77;5.00;;;;;;;;;;5115005;28;20028;-72
2023/01/08 04:07:05;;;;;;;9.65;4.80;;;;;;;;;;5115002;28;20040;-72
2023/01/08 04:09:32;;;;;;;8.98;4.63;;;;;;;;;;5115024;28;20036;-72
2023/01/08 04:11:58;;;;;;;14.55;5.32;;;;;;;;;;5115074;28;20024;-72
2023/01/08 04:14:24;;;;;;;13.25;5.35;;;;;;;;;;5114947;28;20028;-72
2023/01/08 04:16:51;;;;;;;12.32;5.00;;;;;;;;;;5115059;28;20024;-72
2023/01/08 04:19:17;;;;;;;9.15;4.75;;;;;;;;;;5114790;28;20015;-72
2023/01/08 04:21:43;;;;;;;8.63;4.45;;;;;;;;;;5114606;28;20020;-72
2023/01/08 04:24:11;;;;;;;9.52;4.97;;;;;;;;;;5114899;28;20030;-72
2023/01/08 04:26:37;;;;;;;12.68;4.43;;;;;;;;;;5114419;28;20365;-72
2023/01/08 04:29:03;;;;;;;10.52;4.60;;;;;;;;;;5114719;28;20024;-71
2023/01/08 04:31:30;;;;;;;7.93;5.00;;;;;;;;;;5115253;28;20038;-72
2023/01/08 04:33:56;;;;;;;13.95;5.03;;;;;;;;;;5114246;28;20395;-72
2023/01/08 04:36:23;;;;;;;8.77;5.03;;;;;;;;;;5114736;28;20089;-72
2023/01/08 04:38:49;;;;;;;13.98;5.82;;;;;;;;;;5114269;28;20026;-72
2023/01/08 04:41:17;;;;;;;14.10;5.85;;;;;;;;;;5114374;28;20028;-72
2023/01/08 04:43:43;;;;;;;12.95;5.65;;;;;;;;;;5114460;28;20028;-72
2023/01/08 04:46:10;;;;;;;10.13;5.13;;;;;;;;;;5096142;28;20030;-72
2023/01/08 04:48:36;;;;;;;9.73;5.50;;;;;;;;;;5113943;28;20030;-72
2023/01/08 04:51:03;;;;;;;9.43;5.63;;;;;;;;;;5114434;28;20030;-72
2023/01/08 04:53:30;;;;;;;9.43;5.22;;;;;;;;;;5114272;28;20039;-72
2023/01/08 04:55:56;;;;;;;9.75;5.32;;;;;;;;;;5114137;28;20395;-72
2023/01/08 04:58:22;;;;;;;8.93;5.20;;;;;;;;;;5096105;28;20031;-72
2023/01/08 05:00:49;;;;;;;9.05;5.90;;;;;;;;;;5114030;28;20023;-72
2023/01/08 05:03:15;;;;;;;10.60;5.75;;;;;;;;;;5113761;28;20027;-72
2023/01/08 05:05:41;;;;;;;11.65;5.57;;;;;;;;;;5113924;28;20054;-72
2023/01/08 05:08:08;;;;;;;16.15;5.45;;;;;;;;;;5113876;28;20031;-72
2023/01/08 05:10:34;;;;;;;12.45;5.20;;;;;;;;;;5113971;28;20488;-72
2023/01/08 05:13:00;;;;;;;11.88;5.13;;;;;;;;;;5113755;28;20027;-72
2023/01/08 05:15:27;;;;;;;7.80;5.30;;;;;;;;;;5113721;28;20020;-72
2023/01/08 05:18:04;;;;;;;11.93;5.35;;;;;;;;;;5113333;28;20023;-71
2023/01/08 05:20:33;;;;;;;10.70;5.55;;;;;;;;;;5113679;28;20024;-72
2023/01/08 05:23:00;;;;;;;11.13;5.95;;;;;;;;;;5113541;28;20024;-72
2023/01/08 05:25:26;;;;;;;9.77;5.40;;;;;;;;;;5113656;28;20053;-72
2023/01/08 05:27:52;;;;;;;11.88;5.60;;;;;;;;;;5113311;28;20027;-72
2023/01/08 05:30:19;;;;;;;13.35;6.65;;;;;;;;;;5112957;28;20024;-72
2023/01/08 05:32:45;;;;;;;12.38;5.68;;;;;;;;;;5113568;28;20027;-72
2023/01/08 05:35:11;;;;;;;11.43;6.45;;;;;;;;;;5113436;28;20026;-72
2023/01/08 05:37:38;;;;;;;10.65;5.50;;;;;;;;;;5113230;28;20034;-72
2023/01/08 05:40:05;;;;;;;10.45;5.50;;;;;;;;;;5113048;28;20050;-72
2023/01/08 05:42:33;;;;;;;11.90;6.13;;;;;;;;;;5113490;28;20019;-72
2023/01/08 05:44:59;;;;;;;12.77;5.95;;;;;;;;;;5112852;28;20532;-72
2023/01/08 05:47:29;;;;;;;14.90;5.70;;;;;;;;;;5112989;28;20046;-72
2023/01/08 05:49:55;;;;;;;11.43;5.57;;;;;;;;;;5113045;28;20529;-72
2023/01/08 05:52:21;;;;;;;10.70;5.32;;;;;;;;;;5112988;28;20042;-72
2023/01/08 05:54:48;;;;;;;9.57;5.43;;;;;;;;;;5113146;28;20494;-71
2023/01/08 05:57:14;;;;;;;14.18;6.10;;;;;;;;;;5113095;28;20034;-72
2023/01/08 05:59:40;;;;;;;12.93;5.35;;;;;;;;;;5077639;28;20031;-72
2023/01/08 06:02:07;;;;;;;12.07;5.70;;;;;;;;;;5112903;28;20019;-72
2023/01/08 06:04:34;;;;;;;10.65;5.32;;;;;;;;;;5112992;28;20445;-72
2023/01/08 06:07:00;;;;;;;12.30;5.80;;;;;;;;;;5112566;28;20036;-72
2023/01/08 06:09:26;;;;;;;10.50;5.20;;;;;;;;;;5112535;28;20047;-72
2023/01/08 06:11:53;;;;;;;12.77;6.30;;;;;;;;;;5113026;28;20037;-72
2023/01/08 06:14:19;;;;;;;13.27;6.03;;;;;;;;;;5112362;28;20037;-72
2023/01/08 06:16:45;;;;;;;11.57;5.50;;;;;;;;;;5112584;28;20019;-72
2023/01/08 06:19:12;;;;;;;13.00;5.68;;;;;;;;;;5112708;28;20068;-72
2023/01/08 06:21:38;;;;;;;9.93;5.53;;;;;;;;;;5112072;28;20016;-72
2023/01/08 06:24:05;;;;;;;11.32;5.60;;;;;;;;;;5112886;28;20031;-72
2023/01/08 06:26:31;;;;;;;9.43;5.18;;;;;;;;;;5112356;28;21095;-72
2023/01/08 06:28:57;;;;;;;8.65;5.65;;;;;;;;;;5112069;28;20400;-72
2023/01/08 06:31:23;;;;;;;12.77;5.72;;;;;;;;;;5112828;28;20024;-72
2023/01/08 06:33:50;;;;;;;14.38;5.78;;;;;;;;;;5112652;28;20020;-72
2023/01/08 06:36:16;;;;;;;10.73;5.60;;;;;;;;;;5116834;28;20068;-72
2023/01/08 06:38:42;;;;;;;12.40;5.55;;;;;;;;;;5116749;28;20031;-72
2023/01/08 06:41:09;;;;;;;12.02;5.40;;;;;;;;;;5116722;28;20032;-72
2023/01/08 06:43:37;;;;;;;11.20;5.38;;;;;;;;;;5116239;28;20028;-72
2023/01/08 06:46:04;;;;;;;8.90;6.07;;;;;;;;;;5116676;28;20026;-72
2023/01/08 06:48:30;;;;;;;10.77;5.47;;;;;;;;;;5116843;28;20028;-72
2023/01/08 06:50:59;;;;;;;11.77;5.65;;;;;;;;;;5116711;28;20031;-72
2023/01/08 06:53:26;;;;;;;12.88;5.43;;;;;;;;;;5116663;28;20026;-72
2023/01/08 06:55:55;;;;;;;11.77;5.30;;;;;;;;;;5116807;28;20065;-71
2023/01/08 06:58:29;;;;;;;10.07;5.30;;;;;;;;;;5116104;28;20019;-72
2023/01/08 07:00:57;;;;;;;11.38;5.35;;;;;;;;;;5116353;28;20023;-72
2023/01/08 07:03:24;;;;;;;12.00;5.28;;;;;;;;;;5098396;28;20031;-71
2023/01/08 07:05:50;;;;;;;10.40;5.70;;;;;;;;;;5116384;28;20012;-71
2023/01/08 07:08:17;;;;;;;11.98;6.05;;;;;;;;;;5115985;28;20036;-72
2023/01/08 07:10:44;;;;;;;10.23;5.88;;;;;;;;;;5116398;28;20064;-72
2023/01/08 07:13:11;;;;;;;14.95;6.03;;;;;;;;;;5116050;28;20030;-72
2023/01/08 07:15:38;;;;;;;18.67;6.25;;;;;;;;;;5116175;28;20492;-72
2023/01/08 07:18:05;;;;;;;15.95;6.28;;;;;;;;;;5116279;28;20030;-72
2023/01/08 07:20:32;;;;;;;14.40;6.68;;;;;;;;;;5116218;28;20067;-72
2023/01/08 07:23:05;;;;;;;13.55;7.00;;;;;;;;;;5115793;28;20034;-72
2023/01/08 07:25:32;;;;;;;18.05;7.30;;;;;;;;;;5115846;28;20031;-72
2023/01/08 07:27:59;;;;;;;15.38;7.28;;;;;;;;;;5115344;28;20031;-71
2023/01/08 07:30:25;;;;;;;17.25;8.15;;;;;;;;;;5116172;28;20050;-71
2023/01/08 07:32:52;;;;;;;14.77;8.40;;;;;;;;;;5115755;28;20023;-72
2023/01/08 07:35:18;;;;;;;17.60;8.45;;;;;;;;;;5115985;28;20030;-71
2023/01/08 07:37:44;;;;;;;15.25;9.15;;;;;;;;;;5115566;28;20023;-71
2023/01/08 07:40:12;;;;;;;16.60;8.52;;;;;;;;;;5094263;28;20048;-71
2023/01/08 07:42:38;;;;;;;16.77;8.18;;;;;;;;;;5094921;28;20036;-72
2023/01/08 07:45:05;;;;;;;20.52;11.70;;;;;;;;;;5094659;28;20036;-72
2023/01/08 07:47:31;;;;;;;38.38;17.08;;;;;;;;;;5094915;28;20450;-72
2023/01/08 07:49:57;;;;;;;66.38;24.30;;;;;;;;;;5094960;28;20020;-71
2023/01/08 07:52:24;;;;;;;24.67;14.63;;;;;;;;;;5095187;28;20036;-72
2023/01/08 07:54:50;;;;;;;28.70;17.45;;;;;;;;;;5095254;28;20028;-72
2023/01/08 07:57:16;;;;;;;32.72;18.10;;;;;;;;;;5094691;28;20020;-71
2023/01/08 07:59:42;;;;;;;33.90;17.60;;;;;;;;;;5094970;28;20046;-72
2023/01/08 08:02:11;;;;;;;25.08;14.80;;;;;;;;;;5095419;28;20035;-72
2023/01/08 08:04:38;;;;;;;25.08;13.93;;;;;;;;;;5094655;28;20542;-72
2023/01/08 08:07:04;;;;;;;18.90;11.02;;;;;;;;;;5094832;28;20043;-71
2023/01/08 08:09:30;;;;;;;12.45;8.02;;;;;;;;;;5094425;28;20022;-73
2023/01/08 08:11:57;;;;;;;17.10;8.68;;;;;;;;;;5094954;28;20028;-72
2023/01/08 08:14:23;;;;;;;16.15;8.82;;;;;;;;;;5094655;28;20073;-72
2023/01/08 08:16:49;;;;;;;12.48;6.95;;;;;;;;;;5094846;28;20027;-71
2023/01/08 08:19:16;;;;;;;12.32;5.90;;;;;;;;;;5094584;28;20031;-72
2023/01/08 08:21:42;;;;;;;12.70;6.40;;;;;;;;;;5094441;28;20032;-72
2023/01/08 08:24:08;;;;;;;10.05;6.25;;;;;;;;;;5094331;28;20054;-72
2023/01/08 08:26:35;;;;;;;13.52;6.15;;;;;;;;;;5094240;28;20020;-72
2023/01/08 08:29:01;;;;;;;10.80;6.40;;;;;;;;;;5094750;28;20068;-72
2023/01/08 08:31:28;;;;;;;9.80;6.38;;;;;;;;;;5094219;28;20034;-72
2023/01/08 08:33:54;;;;;;;13.60;6.57;;;;;;;;;;5094213;28;20101;-72
2023/01/08 08:36:20;;;;;;;11.73;6.75;;;;;;;;;;5094069;28;20028;-72
2023/01/08 08:38:46;;;;;;;10.38;7.25;;;;;;;;;;5095126;28;20028;-72
2023/01/08 08:41:13;;;;;;;12.32;7.05;;;;;;;;;;5114382;28;20101;-72
2023/01/08 08:43:39;;;;;;;13.27;6.38;;;;;;;;;;5114641;28;20034;-72
2023/01/08 08:46:05;;;;;;;13.88;6.72;;;;;;;;;;5114147;28;20026;-72
2023/01/08 08:48:32;;;;;;;8.93;5.40;;;;;;;;;;5114364;28;20031;-72
2023/01/08 08:50:58;;;;;;;15.27;8.85;;;;;;;;;;5114471;28;20031;-72
2023/01/08 08:53:24;;;;;;;13.95;7.63;;;;;;;;;;5113744;28;20027;-72
2023/01/08 08:55:50;;;;;;;16.65;7.72;;;;;;;;;;5096019;28;20034;-72
2023/01/08 08:58:17;;;;;;;16.65;9.10;;;;;;;;;;5113171;28;20023;-72
2023/01/08 09:00:43;;;;;;;13.20;7.03;;;;;;;;;;5114069;28;20403;-72
2023/01/08 09:03:14;;;;;;;9.13;5.50;;;;;;;;;;5114315;28;20020;-72
2023/01/08 09:05:41;;;;;;;9.10;5.22;;;;;;;;;;5095901;28;20031;-72
2023/01/08 09:08:08;;;;;;;11.82;6.10;;;;;;;;;;5113319;28;20035;-72
2023/01/08 09:10:36;;;;;;;8.40;5.05;;;;;;;;;;5114151;28;20016;-72
2023/01/08 09:13:02;;;;;;;10.30;5.57;;;;;;;;;;5113732;28;20023;-72
2023/01/08 09:15:29;;;;;;;9.02;5.47;;;;;;;;;;5113827;28;20395;-72
2023/01/08 09:17:56;;;;;;;12.18;5.82;;;;;;;;;;5113842;28;20022;-72
2023/01/08 09:20:23;;;;;;;9.02;5.60;;;;;;;;;;5113809;28;20038;-72
2023/01/08 09:22:49;;;;;;;22.15;11.48;;;;;;;;;;5113555;28;20076;-72
2023/01/08 09:25:16;;;;;;;14.00;7.15;;;;;;;;;;5113706;28;20020;-72
2023/01/08 09:27:42;;;;;;;12.38;6.00;;;;;;;;;;5113300;28;20072;-72
2023/01/08 09:30:08;;;;;;;12.27;5.60;;;;;;;;;;5113624;28;20030;-72
2023/01/08 09:32:35;;;;;;;8.23;4.03;;;;;;;;;;5113386;28;20402;-72
2023/01/08 09:35:01;;;;;;;9.18;3.90;;;;;;;;;;5095529;28;20068;-72
2023/01/08 09:37:27;;;;;;;9.15;3.80;;;;;;;;;;5112841;28;20498;-72
2023/01/08 09:39:54;;;;;;;5.90;3.35;;;;;;;;;;5113219;28;20043;-72
2023/01/08 09:42:21;;;;;;;8.20;3.72;;;;;;;;;;5113468;28;20034;-72
2023/01/08 09:44:49;;;;;;;8.32;4.28;;;;;;;;;;5113424;28;20028;-72
2023/01/08 09:47:21;;;;;;;8.88;4.00;;;;;;;;;;5113317;28;20070;-72
2023/01/08 09:49:48;;;;;;;6.22;4.13;;;;;;;;;;5113164;28;20392;-72
2023/01/08 09:52:15;;;;;;;7.63;4.43;;;;;;;;;;5112770;28;20484;-72
2023/01/08 09:54:41;;;;;;;10.30;4.80;;;;;;;;;;5113174;28;20023;-72
2023/01/08 09:57:16;;;;;;;9.05;4.47;;;;;;;;;;5095045;28;20027;-72
2023/01/08 09:59:46;;;;;;;7.25;4.28;;;;;;;;;;5113014;28;20020;-72
2023/01/08 10:02:15;;;;;;;7.93;4.75;;;;;;;;;;5112965;28;20024;-72
2023/01/08 10:04:42;;;;;;;10.00;4.75;;;;;;;;;;5112887;28;20024;-72
2023/01/08 10:07:23;;;;;;;10.88;5.90;;;;;;;;;;5112639;28;20032;-72
2023/01/08 10:09:50;;;;;;;10.65;5.50;;;;;;;;;;5112804;28;20415;-72
2023/01/08 10:12:21;;;;;;;9.85;5.30;;;;;;;;;;5112964;28;20035;-72
2023/01/08 10:14:48;;;;;;;12.80;7.50;;;;;;;;;;5113120;28;20038;-72
2023/01/08 10:17:29;;;;;;;14.18;7.07;;;;;;;;;;5112981;28;20023;-72
2023/01/08 10:19:55;;;;;;;13.90;8.37;;;;;;;;;;5112744;28;20020;-72
2023/01/08 10:22:23;;;;;;;15.68;8.38;;;;;;;;;;5112420;28;20750;-72
2023/01/08 10:24:50;;;;;;;13.90;8.02;;;;;;;;;;5112657;28;20030;-72
2023/01/08 10:27:17;;;;;;;13.65;7.85;;;;;;;;;;5112300;28;20031;-72
2023/01/08 10:29:44;;;;;;;16.98;8.40;;;;;;;;;;5112548;28;20027;-72
2023/01/08 10:32:13;;;;;;;12.13;8.10;;;;;;;;;;5094389;28;20069;-72
2023/01/08 10:34:42;;;;;;;14.88;8.15;;;;;;;;;;5112041;28;20028;-72
2023/01/08 10:37:17;;;;;;;14.27;8.05;;;;;;;;;;5112599;28;20533;-72
2023/01/08 10:39:47;;;;;;;14.68;8.15;;;;;;;;;;5112345;28;20047;-72
2023/01/08 10:42:14;;;;;;;14.15;7.75;;;;;;;;;;5112467;28;20076;-72
2023/01/08 10:44:47;;;;;;;15.13;8.35;;;;;;;;;;5112428;28;20030;-72
2023/01/08 10:47:15;;;;;;;15.52;8.75;;;;;;;;;;5112529;28;20039;-72
2023/01/08 10:49:44;;;;;;;14.25;8.60;;;;;;;;;;5112050;28;20434;-72
2023/01/08 10:52:25;;;;;;;13.48;9.07;;;;;;;;;;5112293;28;20495;-72
2023/01/08 10:54:52;;;;;;;16.98;7.88;;;;;;;;;;5112531;28;20024;-72
2023/01/08 10:57:26;;;;;;;14.57;8.63;;;;;;;;;;5112287;28;20415;-72
2023/01/08 10:59:53;;;;;;;16.33;8.52;;;;;;;;;;5112269;28;20468;-72
2023/01/08 11:02:23;;;;;;;16.13;8.77;;;;;;;;;;5112474;28;20032;-72
2023/01/08 11:04:50;;;;;;;17.45;9.88;;;;;;;;;;5112017;28;20491;-72
2023/01/08 11:07:20;;;;;;;15.77;9.80;;;;;;;;;;5112193;28;20046;-72
2023/01/08 11:09:47;;;;;;;17.40;10.43;;;;;;;;;;5112234;28;20476;-72
2023/01/08 11:12:28;;;;;;;20.00;10.20;;;;;;;;;;5112059;28;20073;-72
2023/01/08 11:14:54;;;;;;;18.67;11.10;;;;;;;;;;5112291;28;20022;-72
2023/01/08 11:17:24;;;;;;;19.67;11.20;;;;;;;;;;5112332;28;20032;-72
2023/01/08 11:19:50;;;;;;;18.67;11.27;;;;;;;;;;5111897;28;20027;-72
2023/01/08 11:22:17;;;;;;;16.70;11.25;;;;;;;;;;5115953;28;20180;-72
2023/01/08 11:24:44;;;;;;;19.60;10.90;;;;;;;;;;5115808;28;20016;-72
2023/01/08 11:27:10;;;;;;;18.40;10.63;;;;;;;;;;5116015;28;20044;-72
2023/01/08 11:29:40;;;;;;;17.90;10.82;;;;;;;;;;5115607;28;20023;-72
2023/01/08 11:32:21;;;;;;;19.57;10.30;;;;;;;;;;5115716;28;20028;-72
2023/01/08 11:34:50;;;;;;;17.63;10.02;;;;;;;;;;5115666;28;20020;-72
2023/01/08 11:37:25;;;;;;;17.63;8.70;;;;;;;;;;5115649;28;20488;-72
2023/01/08 11:39:52;;;;;;;17.90;9.60;;;;;;;;;;5077147;28;20508;-72
2023/01/08 11:42:33;;;;;;;14.98;9.13;;;;;;;;;;5095183;28;20024;-72
2023/01/08 11:45:22;;;;;;;19.30;9.83;;;;;;;;;;5095219;28;20384;-72
2023/01/08 11:48:07;;;;;;;14.10;8.57;;;;;;;;;;5094800;28;20028;-73
2023/01/08 11:50:54;;;;;;;17.40;10.90;;;;;;;;;;5095273;28;20030;-72
2023/01/08 11:53:39;;;;;;;18.25;10.20;;;;;;;;;;5094740;28;20031;-72
2023/01/08 11:56:06;;;;;;;14.93;10.68;;;;;;;;;;5094990;28;20034;-72
2023/01/08 11:58:56;;;;;;;15.63;9.50;;;;;;;;;;5095176;28;20024;-72
2023/01/08 12:01:41;;;;;;;15.50;9.50;;;;;;;;;;5089312;28;20024;-71
2023/01/08 12:04:10;;;;;;;19.25;10.00;;;;;;;;;;5094831;28;20050;-72
2023/01/08 12:06:39;;;;;;;16.75;8.98;;;;;;;;;;5094898;28;20035;-72
2023/01/08 12:09:05;;;;;;;17.40;8.52;;;;;;;;;;5094758;28;20024;-72
2023/01/08 12:11:50;;;;;;;14.57;8.43;;;;;;;;;;5094826;28;20028;-72
2023/01/08 12:14:17;;;;;;;17.83;7.60;;;;;;;;;;5094498;28;20031;-72
2023/01/08 12:16:55;;;;;;;14.63;7.15;;;;;;;;;;5094230;28;20431;-71
2023/01/08 12:19:21;;;;;;;16.83;9.45;;;;;;;;;;5094422;28;20024;-72
2023/01/08 12:21:59;;;;;;;14.07;8.13;;;;;;;;;;5094464;28;20031;-72
2023/01/08 12:24:38;;;;;;;10.20;6.90;;;;;;;;;;5094198;28;20102;-72
2023/01/08 12:27:04;;;;;;;19.33;7.90;;;;;;;;;;5094189;28;20036;-72
2023/01/08 12:29:30;;;;;;;14.75;7.95;;;;;;;;;;5094568;28;20486;-72
2023/01/08 12:32:08;;;;;;;16.77;8.38;;;;;;;;;;5092725;28;20024;-72
2023/01/08 12:34:37;;;;;;;17.67;8.95;;;;;;;;;;5093311;28;20020;-72
2023/01/08 12:37:14;;;;;;;18.40;9.07;;;;;;;;;;5094337;28;20028;-72
2023/01/08 12:39:45;;;;;;;14.98;8.48;;;;;;;;;;5103130;28;20051;-72
2023/01/08 12:42:13;;;;;;;16.15;8.65;;;;;;;;;;5114951;28;20026;-73
2023/01/08 12:44:40;;;;;;;17.23;9.10;;;;;;;;;;5114370;28;20027;-72
2023/01/08 12:47:11;;;;;;;12.48;7.28;;;;;;;;;;5113819;28;20028;-72
2023/01/08 12:49:45;;;;;;;15.30;8.88;;;;;;;;;;5114435;28;20032;-72
2023/01/08 12:52:14;;;;;;;15.02;7.82;;;;;;;;;;5114174;28;20065;-72
2023/01/08 12:54:57;;;;;;;15.75;8.15;;;;;;;;;;5114111;28;20064;-72
2023/01/08 12:57:40;;;;;;;14.93;7.82;;;;;;;;;;5114208;28;20035;-72
2023/01/08 13:00:18;;;;;;;15.48;8.70;;;;;;;;;;5113606;28;20391;-72
2023/01/08 13:02:57;;;;;;;26.80;13.38;;;;;;;;;;5114303;28;20024;-72
2023/01/08 13:05:23;;;;;;;37.20;18.42;;;;;;;;;;5113871;28;20492;-72
2023/01/08 13:07:54;;;;;;;22.58;11.98;;;;;;;;;;5114077;28;20032;-72
2023/01/08 13:10:20;;;;;;;19.98;9.45;;;;;;;;;;5113839;28;20026;-72
2023/01/08 13:12:50;;;;;;;14.63;9.10;;;;;;;;;;5113729;28;20046;-72
2023/01/08 13:15:24;;;;;;;17.13;9.13;;;;;;;;;;5113783;28;20034;-72
2023/01/08 13:17:51;;;;;;;21.92;9.65;;;;;;;;;;5113774;28;20016;-72
2023/01/08 13:20:21;;;;;;;17.50;9.80;;;;;;;;;;5113619;28;20028;-72
2023/01/08 13:22:55;;;;;;;19.15;8.93;;;;;;;;;;5113458;28;20022;-72
2023/01/08 13:25:21;;;;;;;14.95;8.50;;;;;;;;;;5113418;28;20546;-72
2023/01/08 13:27:48;;;;;;;27.90;15.02;;;;;;;;;;5113290;28;20039;-72
2023/01/08 13:30:29;;;;;;;34.45;17.65;;;;;;;;;;5113254;28;20024;-72
2023/01/08 13:32:55;;;;;;;27.33;13.70;;;;;;;;;;5113263;28;20023;-72
2023/01/08 13:35:30;;;;;;;21.33;9.98;;;;;;;;;;5113451;28;20024;-72
2023/01/08 13:38:18;;;;;;;16.73;7.35;;;;;;;;;;5113228;28;20430;-72
2023/01/08 13:40:45;;;;;;;13.50;6.65;;;;;;;;;;5113285;28;20496;-72
2023/01/08 13:43:19;;;;;;;13.30;7.65;;;;;;;;;;5112460;28;20036;-72
2023/01/08 13:46:01;;;;;;;14.73;6.78;;;;;;;;;;5113480;28;20478;-72
2023/01/08 13:48:29;;;;;;;13.55;5.30;;;;;;;;;;5113079;28;20043;-72
2023/01/08 13:50:56;;;;;;;15.40;8.95;;;;;;;;;;5113000;28;20472;-72
2023/01/08 13:53:23;;;;;;;18.42;9.25;;;;;;;;;;5095071;28;20039;-72
2023/01/08 13:55:58;;;;;;;9.80;4.38;;;;;;;;;;5113245;28;20027;-72
2023/01/08 13:58:25;;;;;;;12.38;4.88;;;;;;;;;;5112543;28;20503;-72
2023/01/08 14:00:56;;;;;;;43.17;23.10;;;;;;;;;;5113266;28;20027;-72
2023/01/08 14:03:26;;;;;;;20.15;9.32;;;;;;;;;;5113200;28;20019;-72
2023/01/08 14:05:53;;;;;;;14.80;8.23;;;;;;;;;;5094975;28;20076;-72
2023/01/08 14:08:26;;;;;;;22.23;10.65;;;;;;;;;;5112651;28;20032;-72
2023/01/08 14:10:53;;;;;;;21.75;11.00;;;;;;;;;;5112754;28;20096;-72
2023/01/08 14:13:22;;;;;;;17.35;9.23;;;;;;;;;;5112430;28;20422;-72
2023/01/08 14:15:48;;;;;;;17.58;9.63;;;;;;;;;;5112689;28;20504;-72
2023/01/08 14:18:14;;;;;;;14.35;7.25;;;;;;;;;;5112502;28;20505;-72
2023/01/08 14:20:43;;;;;;;14.38;6.90;;;;;;;;;;5112981;28;20084;-72
2023/01/08 14:23:17;;;;;;;9.80;5.88;;;;;;;;;;5112575;28;20020;-72
2023/01/08 14:25:46;;;;;;;14.75;7.30;;;;;;;;;;5112362;28;20503;-72
2023/01/08 14:28:16;;;;;;;11.45;6.63;;;;;;;;;;5111889;28;20042;-72
2023/01/08 14:30:52;;;;;;;12.13;6.38;;;;;;;;;;5112512;28;20016;-72
2023/01/08 14:33:22;;;;;;;14.68;6.80;;;;;;;;;;5112813;28;20032;-72
2023/01/08 14:35:50;;;;;;;16.38;6.72;;;;;;;;;;5112623;28;20012;-72
2023/01/08 14:38:16;;;;;;;13.57;6.88;;;;;;;;;;5112463;28;20631;-72
2023/01/08 14:40:45;;;;;;;20.20;6.60;;;;;;;;;;5112314;28;20046;-72